createdAt,value
2018-03-31T00:01:36.274Z,5.53
2018-03-31T00:06:29.116Z,3.77
2018-03-31T00:11:22.251Z,5.07
2018-03-31T00:16:15.324Z,3.60
2018-03-31T00:21:08.169Z,4.20
2018-03-31T00:26:01.309Z,3.57
2018-03-31T00:30:54.906Z,3.47
2018-03-31T00:35:48.837Z,4.30
2018-03-31T00:40:41.711Z,4.23
2018-03-31T00:45:34.516Z,4.00
2018-03-31T00:50:28.108Z,4.17
2018-03-31T00:55:21.698Z,4.47
2018-03-31T01:00:15.298Z,8.17
2018-03-31T01:05:08.117Z,4.53
2018-03-31T01:10:00.972Z,5.40
2018-03-31T01:14:53.824Z,5.87
2018-03-31T01:19:46.650Z,8.17
2018-03-31T01:24:40.334Z,6.17
2018-03-31T01:29:33.929Z,5.57
2018-03-31T01:34:26.762Z,6.73
2018-03-31T01:39:19.584Z,7.70
2018-03-31T01:44:12.396Z,5.83
2018-03-31T01:49:05.227Z,6.27
2018-03-31T01:53:58.055Z,6.33
2018-03-31T01:58:52.077Z,7.37
2018-03-31T02:03:44.892Z,8.43
2018-03-31T02:08:37.722Z,7.80
2018-03-31T02:13:30.546Z,7.20
2018-03-31T02:18:24.163Z,7.13
2018-03-31T02:23:16.998Z,8.97
2018-03-31T02:28:10.604Z,9.20
2018-03-31T02:33:03.421Z,8.10
2018-03-31T02:37:56.294Z,9.27
2018-03-31T02:42:49.131Z,7.73
2018-03-31T02:47:42.137Z,10.03
2018-03-31T02:52:34.956Z,8.20
2018-03-31T02:57:27.559Z,8.57
2018-03-31T03:02:20.405Z,11.23
2018-03-31T03:07:13.243Z,11.17
2018-03-31T03:12:06.074Z,10.30
2018-03-31T03:16:59.664Z,11.53
2018-03-31T03:21:53.247Z,9.87
2018-03-31T03:26:46.860Z,11.93
2018-03-31T03:31:39.698Z,11.23
2018-03-31T03:36:33.310Z,14.47
2018-03-31T03:41:26.138Z,14.10
2018-03-31T03:46:19.743Z,13.80
2018-03-31T03:51:12.570Z,13.33
2018-03-31T03:56:05.446Z,11.70
2018-03-31T04:00:58.287Z,12.33
2018-03-31T04:05:51.129Z,11.60
2018-03-31T04:10:43.969Z,11.20
2018-03-31T04:15:37.393Z,11.47
2018-03-31T04:20:30.239Z,11.97
2018-03-31T04:25:23.218Z,13.67
2018-03-31T04:30:16.061Z,11.93
2018-03-31T04:35:08.897Z,11.73
2018-03-31T04:40:01.740Z,17.60
2018-03-31T04:44:54.758Z,13.93
2018-03-31T04:49:48.370Z,14.43
2018-03-31T04:54:41.231Z,16.63
2018-03-31T04:59:34.122Z,15.03
2018-03-31T05:04:26.738Z,15.50
2018-03-31T05:09:20.357Z,17.90
2018-03-31T05:14:12.954Z,16.70
2018-03-31T05:19:06.469Z,15.17
2018-03-31T05:23:59.317Z,16.13
2018-03-31T05:28:52.707Z,13.83
2018-03-31T05:33:46.314Z,15.10
2018-03-31T05:38:39.162Z,14.93
2018-03-31T05:43:32.766Z,15.17
2018-03-31T05:48:25.600Z,13.30
2018-03-31T05:53:19.207Z,16.00
2018-03-31T05:58:12.039Z,11.03
2018-03-31T06:03:04.879Z,12.67
2018-03-31T06:07:57.728Z,12.90
2018-03-31T06:12:50.570Z,14.00
2018-03-31T06:17:43.404Z,11.83
2018-03-31T06:22:36.229Z,15.67
2018-03-31T06:27:29.091Z,12.83
2018-03-31T06:32:21.684Z,7.37
2018-03-31T06:37:14.542Z,10.37
2018-03-31T06:42:07.392Z,10.97
2018-03-31T06:47:00.246Z,10.47
2018-03-31T06:51:53.874Z,9.73
2018-03-31T06:56:46.498Z,11.27
2018-03-31T07:01:39.373Z,9.33
2018-03-31T07:06:32.224Z,6.97
2018-03-31T07:11:26.757Z,7.17
2018-03-31T07:16:19.720Z,8.23
2018-03-31T07:21:12.652Z,6.43
2018-03-31T07:26:05.517Z,6.57
2018-03-31T07:30:59.135Z,4.50
2018-03-31T07:35:51.996Z,5.67
2018-03-31T07:40:45.057Z,5.03
2018-03-31T07:45:38.033Z,5.50
2018-03-31T07:50:31.114Z,5.90
2018-03-31T07:55:24.093Z,5.10
2018-03-31T08:00:17.369Z,5.53
2018-03-31T08:05:10.204Z,5.13
2018-03-31T08:10:03.095Z,5.10
2018-03-31T08:14:55.926Z,5.57
2018-03-31T08:19:49.566Z,4.60
2018-03-31T08:24:42.601Z,4.20
2018-03-31T08:29:35.465Z,4.03
2018-03-31T08:34:29.258Z,4.50
2018-03-31T08:39:22.101Z,6.43
2018-03-31T08:44:15.270Z,5.57
2018-03-31T08:49:08.406Z,5.60
2018-03-31T08:54:01.721Z,4.73
2018-03-31T08:58:55.191Z,3.53
2018-03-31T09:03:48.290Z,3.73
2018-03-31T09:08:41.399Z,4.10
2018-03-31T09:13:35.318Z,4.17
2018-03-31T09:18:28.494Z,3.63
2018-03-31T09:23:21.601Z,3.50
2018-03-31T09:28:14.723Z,2.80
2018-03-31T09:33:07.852Z,3.57
2018-03-31T09:38:01.016Z,4.27
2018-03-31T09:42:54.137Z,2.70
2018-03-31T09:47:47.309Z,3.83
2018-03-31T09:52:40.450Z,2.97
2018-03-31T09:57:33.570Z,1.57
2018-03-31T10:02:26.686Z,2.90
2018-03-31T10:07:19.816Z,2.67
2018-03-31T10:12:12.685Z,2.57
2018-03-31T10:17:05.575Z,2.67
2018-03-31T10:21:59.201Z,3.77
2018-03-31T10:26:52.061Z,3.27
2018-03-31T10:31:44.894Z,2.60
2018-03-31T10:36:37.743Z,2.87
2018-03-31T10:41:30.956Z,3.77
2018-03-31T10:46:24.639Z,3.80
2018-03-31T10:51:17.654Z,2.90
2018-03-31T10:56:10.483Z,2.47
2018-03-31T11:01:03.376Z,4.20
2018-03-31T11:05:56.262Z,4.27
2018-03-31T11:10:49.106Z,3.23
2018-03-31T11:15:42.112Z,2.33
2018-03-31T11:20:35.129Z,3.97
2018-03-31T11:25:27.980Z,2.03
2018-03-31T11:30:21.600Z,2.33
2018-03-31T11:35:14.468Z,2.43
2018-03-31T11:40:07.340Z,2.70
2018-03-31T11:45:00.208Z,5.03
2018-03-31T11:49:53.073Z,2.07
2018-03-31T11:54:45.934Z,3.57
2018-03-31T11:59:38.789Z,3.00
2018-03-31T12:04:31.656Z,2.57
2018-03-31T12:09:24.472Z,5.07
2018-03-31T12:14:17.330Z,2.47
2018-03-31T12:19:10.213Z,2.47
2018-03-31T12:24:03.069Z,3.17
2018-03-31T12:28:55.945Z,6.27
2018-03-31T12:33:48.784Z,3.03
2018-03-31T12:38:41.654Z,4.33
2018-03-31T12:43:34.533Z,3.70
2018-03-31T12:48:27.615Z,4.77
2018-03-31T12:53:20.621Z,4.83
2018-03-31T12:58:13.485Z,4.33
2018-03-31T13:03:07.089Z,5.97
2018-03-31T13:07:59.974Z,3.97
2018-03-31T13:12:52.878Z,4.97
2018-03-31T13:17:45.729Z,3.87
2018-03-31T13:22:38.654Z,5.20
2018-03-31T13:27:31.544Z,4.30
2018-03-31T13:32:24.411Z,2.60
2018-03-31T13:37:17.272Z,4.60
2018-03-31T13:42:09.902Z,3.90
2018-03-31T13:47:03.538Z,5.37
2018-03-31T13:51:56.392Z,5.67
2018-03-31T13:56:49.266Z,3.87
2018-03-31T14:01:42.142Z,3.03
2018-03-31T14:06:34.970Z,3.03
2018-03-31T14:11:27.864Z,4.20
2018-03-31T14:16:20.736Z,2.87
2018-03-31T14:21:13.593Z,3.33
2018-03-31T14:26:06.460Z,4.80
2018-03-31T14:30:59.324Z,6.90
2018-03-31T14:35:52.197Z,2.97
2018-03-31T14:40:45.090Z,5.07
2018-03-31T14:45:37.952Z,3.80
2018-03-31T14:50:30.886Z,4.97
2018-03-31T14:55:23.820Z,4.40
2018-03-31T15:00:16.811Z,5.17
2018-03-31T15:05:09.688Z,6.03
2018-03-31T15:10:02.374Z,4.00
2018-03-31T15:14:55.240Z,5.93
2018-03-31T15:19:48.187Z,6.50
2018-03-31T15:24:41.053Z,6.70
2018-03-31T15:29:34.861Z,3.50
2018-03-31T15:34:27.700Z,3.90
2018-03-31T15:39:20.561Z,2.50
2018-03-31T15:44:14.179Z,3.83
2018-03-31T15:49:07.017Z,4.83
2018-03-31T15:53:59.859Z,3.77
2018-03-31T15:58:52.748Z,4.93
2018-03-31T16:03:46.345Z,6.00
2018-03-31T16:08:39.211Z,3.43
2018-03-31T16:13:32.104Z,6.73
2018-03-31T16:18:25.216Z,2.20
2018-03-31T16:23:19.575Z,5.07
2018-03-31T16:28:12.413Z,4.27
2018-03-31T16:33:05.266Z,2.80
2018-03-31T16:37:58.860Z,3.37
2018-03-31T16:42:52.480Z,5.83
2018-03-31T16:47:45.350Z,5.30
2018-03-31T16:52:38.225Z,2.93
2018-03-31T16:57:30.843Z,5.77
2018-03-31T17:02:24.472Z,4.37
2018-03-31T17:07:17.554Z,7.37
2018-03-31T17:12:10.398Z,4.50
2018-03-31T17:17:03.024Z,3.77
2018-03-31T17:21:56.655Z,5.43
2018-03-31T17:26:49.508Z,3.67
2018-03-31T17:31:42.381Z,4.70
2018-03-31T17:36:35.447Z,7.77
2018-03-31T17:41:28.478Z,7.23
2018-03-31T17:46:22.109Z,3.20
2018-03-31T17:51:14.972Z,6.60
2018-03-31T17:56:07.828Z,6.17
2018-03-31T18:01:00.703Z,5.37
2018-03-31T18:05:54.505Z,7.77
2018-03-31T18:10:47.371Z,7.63
2018-03-31T18:15:40.386Z,5.63
2018-03-31T18:20:33.552Z,3.40
2018-03-31T18:25:26.397Z,6.57
2018-03-31T18:30:19.361Z,4.77
2018-03-31T18:35:12.241Z,7.73
2018-03-31T18:40:06.588Z,7.33
2018-03-31T18:44:59.424Z,6.63
2018-03-31T18:49:52.273Z,9.77
2018-03-31T18:54:45.312Z,6.93
2018-03-31T18:59:38.304Z,6.40
2018-03-31T19:04:31.164Z,5.60
2018-03-31T19:09:24.784Z,7.20
2018-03-31T19:14:17.630Z,7.43
2018-03-31T19:19:10.692Z,8.50
2018-03-31T19:24:04.353Z,5.97
2018-03-31T19:28:57.461Z,5.77
2018-03-31T19:33:50.303Z,2.53
2018-03-31T19:38:43.268Z,4.27
2018-03-31T19:43:36.157Z,4.50
2018-03-31T19:48:29.159Z,1.70
2018-03-31T19:53:22.294Z,4.10
2018-03-31T19:58:15.295Z,3.40
2018-03-31T20:03:08.127Z,2.90
2018-03-31T20:08:00.960Z,3.90
2018-03-31T20:12:54.537Z,2.33
2018-03-31T20:17:48.157Z,4.57
2018-03-31T20:22:41.025Z,3.67
2018-03-31T20:27:33.857Z,4.33
2018-03-31T20:32:27.475Z,2.97
2018-03-31T20:37:20.342Z,4.97
2018-03-31T20:42:13.171Z,3.23
2018-03-31T20:47:06.829Z,4.23
2018-03-31T20:51:59.686Z,3.27
2018-03-31T20:56:52.603Z,4.43
2018-03-31T21:01:45.462Z,4.13
2018-03-31T21:06:39.080Z,2.77
2018-03-31T21:11:31.906Z,2.10
2018-03-31T21:16:25.539Z,1.70
2018-03-31T21:21:18.442Z,3.20
2018-03-31T21:26:11.288Z,2.17
2018-03-31T21:31:04.134Z,4.67
2018-03-31T21:35:56.971Z,4.00
2018-03-31T21:40:49.812Z,3.17
2018-03-31T21:45:42.657Z,3.60
2018-03-31T21:50:35.281Z,4.10
2018-03-31T21:55:29.264Z,5.30
2018-03-31T22:00:21.880Z,2.50
2018-03-31T22:05:14.722Z,3.60
2018-03-31T22:10:07.542Z,4.23
2018-03-31T22:15:06.737Z,3.67
2018-03-31T22:20:00.382Z,2.90
2018-03-31T22:24:53.238Z,4.03
2018-03-31T22:29:46.090Z,4.63
2018-03-31T22:34:38.962Z,5.57
2018-03-31T22:39:31.783Z,3.73
2018-03-31T22:44:25.033Z,3.00
2018-03-31T22:49:17.968Z,4.23
2018-03-31T22:54:10.832Z,4.37
2018-03-31T22:59:04.448Z,3.87
2018-03-31T23:03:57.519Z,4.00
2018-03-31T23:08:50.333Z,3.60
2018-03-31T23:13:43.978Z,3.63
2018-03-31T23:18:36.807Z,6.03
2018-03-31T23:23:29.762Z,5.80
2018-03-31T23:28:23.410Z,3.83
2018-03-31T23:33:16.284Z,5.53
2018-03-31T23:38:09.125Z,3.77
2018-03-31T23:43:01.978Z,4.27
2018-03-31T23:47:54.827Z,5.07
2018-03-31T23:52:48.541Z,3.87
2018-03-31T23:57:41.373Z,4.10
